Time;durP1;ratioP1;P1;durP2;ratioP2;P2;SDS_P1;SDS_P2;PMS_P1;PMS_P2;Temp;Humidity;BMP_temperature;BMP_pressure;BME280_temperature;BME280_humidity;BME280_pressure;Samples;Min_cycle;Max_cycle;Signal;HPM_P1;HPM_P2
2023/08/27 00:02:17;;;;;;;18.55;14.38;;;;;;;21.78;72.77;97364.81;10325162;28;20097;-54
2023/08/27 00:07:16;;;;;;;22.30;15.15;;;;;;;21.78;72.86;97372.72;10323566;28;20112;-54
2023/08/27 00:12:15;;;;;;;16.73;13.63;;;;;;;21.64;73.65;97370.81;10324310;28;20128;-54
2023/08/27 00:17:14;;;;;;;17.63;13.93;;;;;;;21.58;73.58;97360.56;10324083;28;20025;-54
2023/08/27 00:22:13;;;;;;;17.77;14.55;;;;;;;21.22;74.46;97335.13;10323692;28;20044;-54
2023/08/27 00:27:12;;;;;;;18.00;13.77;;;;;;;21.14;75.55;97359.19;10322774;28;20025;-54
2023/08/27 00:32:11;;;;;;;15.55;13.75;;;;;;;20.94;76.03;97332.97;10324172;28;20037;-54
2023/08/27 00:37:10;;;;;;;19.10;14.90;;;;;;;20.95;76.28;97344.38;10320985;28;20132;-54
2023/08/27 00:42:09;;;;;;;19.95;14.88;;;;;;;20.76;76.35;97323.31;10324879;28;20033;-54
2023/08/27 00:47:08;;;;;;;20.55;15.52;;;;;;;20.95;76.01;97350.50;10330664;28;20653;-54
2023/08/27 00:52:08;;;;;;;15.77;13.88;;;;;;;20.83;76.98;97345.81;10328989;28;20108;-54
2023/08/27 00:57:08;;;;;;;17.75;14.75;;;;;;;20.69;77.52;97354.41;10329509;28;20197;-54
2023/08/27 01:02:07;;;;;;;19.10;15.10;;;;;;;20.58;78.14;97346.16;10331406;28;20068;-54
2023/08/27 01:07:22;;;;;;;17.38;14.77;;;;;;;20.56;78.27;97354.13;10327964;28;20045;-54
2023/08/27 01:12:32;;;;;;;18.98;14.98;;;;;;;20.44;78.99;97344.16;10326794;28;20061;-54
2023/08/27 01:17:33;;;;;;;20.75;14.45;;;;;;;20.50;78.65;97347.38;10328500;28;20531;-54
2023/08/27 01:22:32;;;;;;;21.35;15.75;;;;;;;20.43;78.96;97353.00;10328787;28;20073;-54
2023/08/27 01:27:43;;;;;;;19.83;14.65;;;;;;;20.44;78.75;97344.16;10327571;28;20037;-54
2023/08/27 01:32:49;;;;;;;19.83;14.75;;;;;;;20.19;79.02;97344.41;10326283;28;20112;-54
2023/08/27 01:37:49;;;;;;;18.85;14.98;;;;;;;19.96;78.64;97316.53;10330227;28;20112;-54
2023/08/27 01:42:48;;;;;;;16.17;13.80;;;;;;;19.92;78.53;97300.00;10329638;28;20060;-54
2023/08/27 01:47:46;;;;;;;16.90;13.77;;;;;;;20.17;78.59;97347.16;10327145;28;20553;-54
2023/08/27 01:52:45;;;;;;;17.00;14.70;;;;;;;20.05;77.98;97308.22;10326440;28;20026;-55
2023/08/27 01:57:47;;;;;;;18.17;13.68;;;;;;;20.26;77.76;97341.44;10326975;28;20025;-55
2023/08/27 02:02:46;;;;;;;19.88;13.38;;;;;;;20.14;77.55;97325.34;10326706;28;20052;-55
2023/08/27 02:07:45;;;;;;;19.45;14.68;;;;;;;20.27;77.57;97337.88;10325864;28;20056;-54
2023/08/27 02:12:44;;;;;;;16.42;13.73;;;;;;;20.16;77.20;97312.97;10323642;28;20041;-54
2023/08/27 02:17:43;;;;;;;16.08;14.35;;;;;;;20.21;77.25;97318.84;10325634;28;20476;-55
2023/08/27 02:22:42;;;;;;;15.50;13.77;;;;;;;20.27;77.22;97332.59;10325583;28;20532;-55
2023/08/27 02:27:41;;;;;;;16.58;14.18;;;;;;;20.12;77.83;97327.19;10341158;28;20451;-54
2023/08/27 02:32:40;;;;;;;16.77;13.35;;;;;;;19.96;77.81;97322.66;10325534;28;20083;-54
2023/08/27 02:37:39;;;;;;;20.92;14.43;;;;;;;20.02;78.00;97335.50;10323315;28;20029;-55
2023/08/27 02:42:38;;;;;;;23.08;15.15;;;;;;;19.94;77.95;97302.56;10324090;28;20028;-55
2023/08/27 02:47:37;;;;;;;21.00;15.10;;;;;;;20.08;77.85;97331.75;10287748;28;1117707;-54
2023/08/27 02:52:36;;;;;;;19.30;15.05;;;;;;;20.11;77.67;97325.50;10326230;28;20148;-54
2023/08/27 02:57:36;;;;;;;17.42;15.13;;;;;;;19.83;78.62;97298.63;10326673;28;20021;-55
2023/08/27 03:02:35;;;;;;;20.70;15.32;;;;;;;20.04;78.25;97319.66;10325716;28;20048;-55
2023/08/27 03:07:34;;;;;;;19.35;15.20;;;;;;;20.07;78.44;97330.03;10325436;28;20033;-55
2023/08/27 03:12:33;;;;;;;18.60;15.13;;;;;;;20.09;77.86;97330.81;10326187;28;20132;-55
2023/08/27 03:17:32;;;;;;;20.38;15.20;;;;;;;20.13;78.18;97328.91;10322490;28;20124;-54
2023/08/27 03:22:31;;;;;;;19.67;14.35;;;;;;;20.14;77.92;97335.88;10324090;28;20040;-55
2023/08/27 03:27:34;;;;;;;20.20;15.45;;;;;;;20.12;78.22;97345.63;10324168;28;20064;-55
2023/08/27 03:32:33;;;;;;;21.30;15.90;;;;;;;20.06;78.75;97323.91;10323529;28;20500;-54
2023/08/27 03:37:31;;;;;;;20.20;16.27;;;;;;;18.83;78.81;97118.09;10324319;28;20046;-54
2023/08/27 03:42:30;;;;;;;20.15;15.05;;;;;;;20.14;78.92;97343.78;10323714;28;20155;-55
2023/08/27 03:47:29;;;;;;;20.73;15.23;;;;;;;20.16;78.64;97349.84;10322815;28;20078;-55
2023/08/27 03:52:28;;;;;;;22.65;15.68;;;;;;;20.16;78.73;97350.69;10323443;28;20021;-56
2023/08/27 03:57:27;;;;;;;23.33;16.15;;;;;;;19.97;80.13;97360.34;10322612;28;20574;-54
2023/08/27 04:02:26;;;;;;;20.83;15.75;;;;;;;19.93;79.81;97369.31;10322522;28;20468;-54
2023/08/27 04:07:25;;;;;;;21.90;16.27;;;;;;;19.78;79.75;97368.22;10323031;28;20437;-54
2023/08/27 04:12:24;;;;;;;23.38;18.40;;;;;;;19.66;79.66;97349.41;10323413;28;20463;-54
2023/08/27 04:17:23;;;;;;;24.10;17.17;;;;;;;19.86;79.74;97374.88;10323045;28;20129;-54
2023/08/27 04:22:22;;;;;;;20.73;18.15;;;;;;;19.85;79.55;97359.97;10322509;28;20050;-54
2023/08/27 04:27:21;;;;;;;23.65;17.80;;;;;;;20.01;79.35;97378.59;10323550;28;20128;-54
2023/08/27 04:32:20;;;;;;;23.77;18.13;;;;;;;20.11;79.18;97378.19;10322176;28;20032;-54
2023/08/27 04:37:19;;;;;;;25.88;17.55;;;;;;;20.21;79.05;97379.47;10323022;28;20026;-54
2023/08/27 04:42:18;;;;;;;22.00;16.42;;;;;;;20.25;78.99;97387.16;10322865;28;20121;-54
2023/08/27 04:47:17;;;;;;;22.35;17.20;;;;;;;20.39;78.90;97390.94;10323588;28;20551;-54
2023/08/27 04:52:16;;;;;;;22.70;16.40;;;;;;;20.47;78.51;97402.03;10323003;28;20030;-54
2023/08/27 04:57:15;;;;;;;25.75;16.67;;;;;;;20.65;77.83;97395.03;10321770;28;20743;-54
2023/08/27 05:02:14;;;;;;;28.48;16.85;;;;;;;20.80;77.53;97404.00;10323547;28;20717;-54
2023/08/27 05:07:13;;;;;;;19.85;15.98;;;;;;;20.96;76.88;97399.69;10323340;28;20439;-54
2023/08/27 05:12:12;;;;;;;24.98;16.10;;;;;;;21.07;76.59;97396.50;10320474;28;20037;-54
2023/08/27 05:17:11;;;;;;;18.45;14.98;;;;;;;21.25;76.05;97403.56;10322295;28;20125;-54
2023/08/27 05:22:10;;;;;;;21.23;16.48;;;;;;;21.47;75.32;97400.69;10319950;28;20018;-54
2023/08/27 05:27:09;;;;;;;24.65;18.05;;;;;;;21.38;74.60;97373.91;10324892;28;20029;-54
2023/08/27 05:32:08;;;;;;;21.63;15.98;;;;;;;21.60;74.49;97413.28;10328965;28;20044;-54
2023/08/27 05:37:06;;;;;;;18.55;16.55;;;;;;;21.70;74.60;97411.88;10326922;28;20021;-54
2023/08/27 05:42:06;;;;;;;18.38;15.23;;;;;;;21.83;73.35;97391.81;10327531;28;20104;-54
2023/08/27 05:47:05;;;;;;;20.58;15.98;;;;;;;21.97;73.20;97406.97;10329195;28;20080;-54
2023/08/27 05:52:04;;;;;;;19.35;14.75;;;;;;;22.19;72.64;97406.69;10327567;28;20080;-54
2023/08/27 05:57:04;;;;;;;16.13;14.00;;;;;;;22.27;71.68;97369.25;10329345;28;20033;-55
2023/08/27 06:02:04;;;;;;;17.65;14.25;;;;;;;22.45;69.44;97354.19;10321897;28;20105;-55
2023/08/27 06:07:03;;;;;;;18.00;14.63;;;;;;;22.93;68.67;97400.88;10320305;28;20112;-54
2023/08/27 06:12:03;;;;;;;15.63;13.95;;;;;;;23.22;66.98;97398.38;10321769;28;20025;-55
2023/08/27 06:17:02;;;;;;;20.10;14.82;;;;;;;23.33;66.99;97400.41;10325685;28;20053;-54
2023/08/27 06:22:01;;;;;;;19.67;15.63;;;;;;;23.50;66.14;97394.97;10326343;28;20056;-54
2023/08/27 06:27:00;;;;;;;18.55;14.10;;;;;;;23.72;65.09;97389.25;10325588;28;20022;-54
2023/08/27 06:31:59;;;;;;;16.88;13.63;;;;;;;23.94;63.65;97386.16;10325741;28;20028;-54
2023/08/27 06:36:58;;;;;;;20.73;14.52;;;;;;;24.05;62.01;97373.13;10324630;28;20144;-54
2023/08/27 06:41:57;;;;;;;21.52;14.55;;;;;;;24.26;59.67;97381.56;10325576;28;20033;-54
2023/08/27 06:46:55;;;;;;;18.92;12.63;;;;;;;24.47;58.19;97382.03;10326214;28;20490;-54
2023/08/27 06:51:54;;;;;;;18.15;10.95;;;;;;;24.62;57.43;97380.19;10321473;28;20431;-54
2023/08/27 06:56:53;;;;;;;13.10;9.70;;;;;;;24.88;55.73;97381.19;10322102;28;20033;-54
2023/08/27 07:01:52;;;;;;;12.52;10.48;;;;;;;25.10;55.40;97380.63;10325218;28;20112;-55
2023/08/27 07:06:51;;;;;;;14.15;11.00;;;;;;;25.41;55.05;97388.34;10322695;28;20038;-55
2023/08/27 07:11:51;;;;;;;13.18;10.25;;;;;;;25.73;54.40;97388.88;10326756;28;20056;-54
2023/08/27 07:16:50;;;;;;;15.02;10.00;;;;;;;26.04;53.32;97382.31;10326223;28;20060;-55
2023/08/27 07:21:49;;;;;;;14.73;9.25;;;;;;;26.35;51.78;97386.34;10325118;28;20048;-55
2023/08/27 07:26:47;;;;;;;14.20;9.70;;;;;;;26.59;51.22;97374.91;10324130;28;20013;-55
2023/08/27 07:31:46;;;;;;;11.82;9.20;;;;;;;26.92;50.09;97378.75;10321348;28;20039;-55
2023/08/27 07:36:45;;;;;;;12.20;8.88;;;;;;;27.08;48.98;97358.03;10311493;28;20026;-55
2023/08/27 07:41:46;;;;;;;13.80;9.38;;;;;;;27.28;47.75;97375.16;10318825;28;20052;-55
2023/08/27 07:47:04;;;;;;;12.23;8.35;;;;;;;27.36;46.49;97346.13;10313612;28;20149;-55
2023/08/27 07:52:09;;;;;;;10.43;8.30;;;;;;;27.61;45.22;97344.28;10319969;28;20049;-55
2023/08/27 08:03:08;;;;;;;13.02;9.10;;;;;;;28.13;45.15;97361.59;10318234;28;20053;-55
2023/08/27 08:08:07;;;;;;;11.68;8.10;;;;;;;28.41;43.90;97351.41;10321907;28;20060;-55
2023/08/27 08:13:06;;;;;;;12.60;8.07;;;;;;;28.62;41.22;97331.00;10321522;28;20055;-55
2023/08/27 08:18:05;;;;;;;11.95;8.48;;;;;;;28.88;40.57;97330.72;10320330;28;20133;-55
2023/08/27 08:23:04;;;;;;;10.43;7.53;;;;;;;29.15;40.39;97335.56;10320361;28;20064;-55
2023/08/27 08:28:04;;;;;;;10.98;7.05;;;;;;;29.37;40.04;97328.44;10316605;28;20040;-55
2023/08/27 08:33:03;;;;;;;11.15;8.32;;;;;;;29.58;39.44;97325.78;10319008;28;20061;-55
2023/08/27 08:38:02;;;;;;;11.10;8.07;;;;;;;29.90;38.02;97325.72;10316470;28;20112;-55
2023/08/27 08:43:01;;;;;;;10.60;7.97;;;;;;;30.01;37.86;97317.59;10319056;28;20112;-55
2023/08/27 08:48:03;;;;;;;10.40;7.28;;;;;;;30.21;37.71;97321.22;10321266;28;20040;-55
2023/08/27 08:53:14;;;;;;;9.85;7.53;;;;;;;30.49;37.73;97305.41;10320423;28;20068;-55
2023/08/27 08:58:13;;;;;;;9.10;7.18;;;;;;;30.74;36.68;97302.19;10320338;28;20065;-55
2023/08/27 09:03:15;;;;;;;9.60;6.90;;;;;;;30.86;36.73;97294.03;10325760;28;20064;-55
2023/08/27 09:08:15;;;;;;;9.75;7.50;;;;;;;30.89;36.23;97293.75;10330121;28;20091;-55
2023/08/27 09:13:19;;;;;;;9.55;7.50;;;;;;;31.02;36.17;97296.19;10326149;28;20056;-55
2023/08/27 09:18:18;;;;;;;8.65;6.85;;;;;;;31.17;36.08;97298.31;10328505;28;20112;-55
2023/08/27 09:23:17;;;;;;;9.30;6.97;;;;;;;31.18;35.58;97267.84;10328875;28;21602;-55
2023/08/27 09:28:17;;;;;;;9.13;6.82;;;;;;;31.29;36.09;97242.72;10327179;28;20108;-55
2023/08/27 09:33:17;;;;;;;12.50;7.60;;;;;;;31.78;35.75;97280.16;10326182;28;20482;-55
2023/08/27 09:38:16;;;;;;;10.70;7.28;;;;;;;31.98;35.00;97281.75;10327694;28;20116;-55
2023/08/27 09:43:16;;;;;;;10.55;6.82;;;;;;;32.11;34.09;97256.47;10327336;28;20029;-55
2023/08/27 09:48:22;;;;;;;8.32;6.65;;;;;;;32.33;32.89;97265.94;10325333;28;20069;-55
2023/08/27 09:53:21;;;;;;;10.50;6.40;;;;;;;32.25;32.55;97233.63;10285360;28;20129;-55
2023/08/27 09:58:25;;;;;;;11.77;7.60;;;;;;;32.30;32.58;97255.53;10282569;28;20511;-55
2023/08/27 10:03:26;;;;;;;10.13;6.70;;;;;;;32.31;32.18;97255.34;10280389;28;20476;-55
2023/08/27 10:08:25;;;;;;;10.18;6.20;;;;;;;32.40;32.13;97226.75;10277500;28;20462;-55
2023/08/27 10:13:24;;;;;;;7.38;5.90;;;;;;;32.55;31.22;97240.50;10280056;28;20125;-55
2023/08/27 10:18:24;;;;;;;9.80;6.07;;;;;;;32.43;31.24;97232.69;10281953;28;20726;-55
2023/08/27 10:23:24;;;;;;;10.60;5.75;;;;;;;32.43;30.72;97224.63;10282323;28;20123;-55
2023/08/27 10:28:25;;;;;;;13.77;6.93;;;;;;;32.16;31.00;97185.22;10284504;28;20117;-55
2023/08/27 10:33:24;;;;;;;9.23;6.10;;;;;;;32.70;30.49;97228.28;10285089;28;20233;-55
2023/08/27 10:38:28;;;;;;;9.57;5.60;;;;;;;32.91;29.42;97211.81;10285364;28;20026;-55
2023/08/27 10:43:32;;;;;;;7.95;5.70;;;;;;;33.16;29.04;97212.03;10281768;28;20109;-55
2023/08/27 10:48:36;;;;;;;10.07;5.53;;;;;;;33.33;28.59;97204.94;10284196;28;20088;-55
2023/08/27 10:53:40;;;;;;;8.05;5.43;;;;;;;33.29;28.54;97198.19;10281398;28;20113;-55
2023/08/27 10:58:41;;;;;;;10.30;5.15;;;;;;;33.46;27.01;97203.50;10279997;28;20133;-55
2023/08/27 11:04:08;;;;;;;11.40;6.35;;;;;;;33.52;26.93;97180.50;10280799;28;20228;-55
2023/08/27 11:09:21;;;;;;;9.52;4.45;;;;;;;33.41;25.62;97191.53;10282811;28;20125;-55
2023/08/27 11:14:22;;;;;;;9.10;5.25;;;;;;;33.41;25.67;97167.31;10282537;28;20460;-55
2023/08/27 11:19:48;;;;;;;6.43;4.53;;;;;;;33.58;24.80;97170.94;10282391;28;20520;-55
2023/08/27 11:24:52;;;;;;;7.72;4.43;;;;;;;33.45;24.89;97179.47;10280067;28;20140;-55
2023/08/27 11:29:53;;;;;;;11.20;4.78;;;;;;;33.65;23.82;97159.44;10283127;28;20117;-55
2023/08/27 11:34:52;;;;;;;10.80;4.30;;;;;;;33.64;24.40;97167.66;10281123;28;20200;-55
2023/08/27 11:39:51;;;;;;;9.73;5.13;;;;;;;33.68;24.65;97164.47;10275864;28;20116;-55
2023/08/27 11:44:53;;;;;;;7.32;4.30;;;;;;;33.88;23.77;97124.66;10284451;28;20092;-55
2023/08/27 11:49:56;;;;;;;8.25;4.63;;;;;;;34.12;24.30;97144.63;10279533;28;20092;-55
2023/08/27 11:54:56;;;;;;;9.43;4.32;;;;;;;34.12;25.24;97141.09;10281220;28;20577;-55
2023/08/27 11:59:56;;;;;;;8.27;4.93;;;;;;;34.09;25.26;97137.69;10280686;28;20109;-55
2023/08/27 12:04:55;;;;;;;9.43;5.25;;;;;;;33.83;25.39;97070.50;10278764;28;20450;-55
2023/08/27 12:09:54;;;;;;;8.85;4.72;;;;;;;34.18;24.60;97126.97;10277932;28;20121;-55
2023/08/27 12:14:53;;;;;;;9.32;5.07;;;;;;;34.03;25.99;97071.03;10280247;28;20033;-55
2023/08/27 12:19:51;;;;;;;8.85;5.20;;;;;;;34.33;25.99;97108.28;10281505;28;20057;-55
2023/08/27 12:24:50;;;;;;;8.25;5.13;;;;;;;34.56;25.88;97103.09;10280543;28;20113;-55
2023/08/27 12:29:52;;;;;;;8.68;5.28;;;;;;;34.47;26.86;97100.41;10271953;28;20045;-56
2023/08/27 12:34:52;;;;;;;8.13;5.25;;;;;;;34.42;26.22;97086.56;10280282;28;20120;-55
2023/08/27 12:39:51;;;;;;;8.93;5.40;;;;;;;34.49;26.17;97094.84;10285763;28;20117;-55
2023/08/27 12:44:50;;;;;;;11.13;5.43;;;;;;;34.56;25.56;97093.16;10286475;28;20065;-56
2023/08/27 12:49:49;;;;;;;9.73;6.00;;;;;;;34.68;25.40;97083.75;10287434;28;20069;-56
2023/08/27 12:54:48;;;;;;;7.80;5.13;;;;;;;34.49;23.93;97082.19;10285209;28;20040;-56
2023/08/27 12:59:47;;;;;;;8.88;4.68;;;;;;;34.33;24.56;97076.81;10299053;28;20054;-56
2023/08/27 13:04:46;;;;;;;10.40;4.78;;;;;;;34.47;23.46;97078.84;10283403;28;20040;-56
2023/08/27 13:09:45;;;;;;;10.05;4.45;;;;;;;34.43;23.13;97080.19;10282011;28;20044;-56
2023/08/27 13:14:44;;;;;;;6.82;4.22;;;;;;;34.36;23.24;97076.50;10285130;28;20476;-56
2023/08/27 13:19:43;;;;;;;9.02;4.55;;;;;;;34.59;22.67;97073.09;10283714;28;20531;-56
2023/08/27 13:24:43;;;;;;;9.80;3.95;;;;;;;34.83;22.67;97066.91;10282236;28;20360;-56
2023/08/27 13:29:41;;;;;;;7.95;3.70;;;;;;;34.86;21.27;97069.22;10284825;28;20472;-55
2023/08/27 13:34:40;;;;;;;7.38;3.58;;;;;;;34.87;21.54;97063.69;10276413;28;20509;-55
2023/08/27 13:39:39;;;;;;;6.78;3.50;;;;;;;34.77;20.69;97065.69;10280706;28;20030;-56
2023/08/27 13:44:38;;;;;;;8.65;3.80;;;;;;;34.53;21.10;97042.31;10284759;28;20113;-55
2023/08/27 13:49:37;;;;;;;6.38;3.70;;;;;;;34.72;20.73;97057.28;10284376;28;20144;-56
2023/08/27 13:54:36;;;;;;;9.45;4.10;;;;;;;34.99;20.90;97057.91;10278709;28;20109;-56
2023/08/27 13:59:35;;;;;;;6.03;3.15;;;;;;;34.99;20.90;97049.81;10281988;28;20128;-55
2023/08/27 14:04:36;;;;;;;8.77;3.80;;;;;;;34.83;21.81;97056.94;10284897;28;20117;-56
2023/08/27 14:09:34;;;;;;;8.90;4.00;;;;;;;34.78;21.66;97050.38;10283843;28;20061;-56
2023/08/27 14:14:33;;;;;;;10.18;6.47;;;;;;;34.65;21.50;97056.28;10282662;28;20072;-56
2023/08/27 14:19:33;;;;;;;9.60;5.60;;;;;;;34.61;21.82;97022.59;10284906;28;20036;-56
2023/08/27 14:24:32;;;;;;;6.68;4.00;;;;;;;34.66;21.46;97055.28;10284018;28;20501;-55
2023/08/27 14:29:31;;;;;;;7.20;3.55;;;;;;;34.57;21.46;97034.72;10282815;28;20064;-55
2023/08/27 14:34:30;;;;;;;8.20;3.78;;;;;;;34.51;21.53;97037.06;10284684;28;20065;-56
2023/08/27 14:39:29;;;;;;;11.68;6.47;;;;;;;34.36;21.62;97033.41;10283923;28;20085;-55
2023/08/27 14:44:28;;;;;;;8.20;3.97;;;;;;;34.24;21.87;97035.59;10282471;28;20026;-56
2023/08/27 14:49:27;;;;;;;8.15;4.22;;;;;;;34.23;22.22;97016.91;10283121;28;20060;-55
2023/08/27 14:54:26;;;;;;;8.40;3.65;;;;;;;34.34;21.66;97021.94;10283016;28;20112;-56
2023/08/27 14:59:29;;;;;;;7.80;3.90;;;;;;;34.21;22.18;97019.75;10280510;28;20048;-56
2023/08/27 15:04:29;;;;;;;8.18;4.18;;;;;;;34.09;21.60;97021.91;10277460;28;20157;-55
2023/08/27 15:09:28;;;;;;;6.57;3.78;;;;;;;33.88;22.12;97008.94;10271777;28;20116;-55
2023/08/27 15:14:27;;;;;;;17.42;4.10;;;;;;;33.85;22.07;96993.13;10276601;28;20113;-55
2023/08/27 15:19:26;;;;;;;7.88;3.75;;;;;;;34.05;22.27;97017.00;10274241;28;20037;-55
2023/08/27 15:24:25;;;;;;;7.93;3.90;;;;;;;33.67;22.16;96985.19;10274114;28;20027;-55
2023/08/27 15:29:25;;;;;;;7.50;3.50;;;;;;;33.56;22.28;97017.78;10280868;28;20312;-55
2023/08/27 15:34:24;;;;;;;6.45;3.55;;;;;;;33.62;22.44;97018.97;10286423;28;20116;-55
2023/08/27 15:39:23;;;;;;;7.43;3.63;;;;;;;33.43;22.84;97018.22;10271813;28;20126;-55
2023/08/27 15:44:22;;;;;;;6.57;3.40;;;;;;;33.26;22.90;97009.25;10278645;28;20033;-56
2023/08/27 15:49:21;;;;;;;10.50;4.10;;;;;;;33.42;23.00;97010.34;10280102;28;20129;-56
2023/08/27 15:54:20;;;;;;;8.23;4.10;;;;;;;33.41;23.74;97016.69;10274189;28;20599;-55
2023/08/27 15:59:19;;;;;;;7.47;3.17;;;;;;;33.02;23.36;96980.41;10267916;28;21726;-57
2023/08/27 16:04:18;;;;;;;8.55;3.72;;;;;;;33.23;23.49;97027.56;10276568;28;20747;-56
2023/08/27 16:09:19;;;;;;;10.05;3.75;;;;;;;32.84;23.89;97020.81;10277234;28;20422;-56
2023/08/27 16:14:18;;;;;;;9.13;3.22;;;;;;;32.77;24.21;97022.44;10268256;28;20580;-57
2023/08/27 16:19:17;;;;;;;10.55;4.05;;;;;;;32.61;23.50;97030.41;10273123;28;20036;-56
2023/08/27 16:24:16;;;;;;;11.30;4.57;;;;;;;32.39;24.64;97037.94;10276236;28;20398;-56
2023/08/27 16:29:15;;;;;;;10.30;3.85;;;;;;;32.10;24.92;97037.34;10266784;28;20042;-56
2023/08/27 16:34:14;;;;;;;6.13;3.58;;;;;;;31.86;24.80;97019.16;10269110;28;20117;-56
2023/08/27 16:39:13;;;;;;;10.73;3.90;;;;;;;31.74;25.84;97043.53;10283208;28;20132;-56
2023/08/27 16:44:12;;;;;;;8.35;4.13;;;;;;;31.59;26.38;97040.53;10283428;28;20038;-56
2023/08/27 16:49:11;;;;;;;11.40;5.28;;;;;;;31.47;26.05;97047.03;10281936;28;20539;-56
2023/08/27 16:54:11;;;;;;;11.75;5.18;;;;;;;31.00;26.52;97008.78;10276461;28;20112;-55
2023/08/27 16:59:10;;;;;;;11.18;4.70;;;;;;;31.10;27.59;97056.00;10277260;28;20105;-56
2023/08/27 17:04:09;;;;;;;9.07;5.15;;;;;;;30.89;28.83;97066.88;10275194;28;20200;-56
2023/08/27 17:09:08;;;;;;;9.75;4.95;;;;;;;30.62;29.49;97072.16;10274382;28;20146;-56
2023/08/27 17:14:07;;;;;;;14.18;5.00;;;;;;;30.44;29.77;97083.59;10278472;28;20109;-56
2023/08/27 17:19:07;;;;;;;11.70;5.93;;;;;;;30.15;30.40;97088.09;10277399;28;20041;-55
2023/08/27 17:24:07;;;;;;;10.23;5.25;;;;;;;29.92;30.79;97091.88;10283657;28;20112;-55
2023/08/27 17:29:06;;;;;;;17.58;8.35;;;;;;;29.50;31.34;97073.31;10285991;28;20122;-55
2023/08/27 17:34:05;;;;;;;15.57;6.18;;;;;;;29.41;31.65;97090.16;10285338;28;20026;-56
2023/08/27 17:39:05;;;;;;;11.13;4.93;;;;;;;29.16;32.14;97098.66;10284948;28;20116;-55
2023/08/27 17:44:04;;;;;;;9.63;4.97;;;;;;;28.50;33.05;97059.75;10284104;28;20117;-58
2023/08/27 17:49:03;;;;;;;10.90;4.65;;;;;;;28.41;33.57;97088.03;10284892;28;20342;-55
2023/08/27 17:54:02;;;;;;;10.30;4.85;;;;;;;28.27;34.43;97112.38;10283766;28;20040;-57
2023/08/27 17:59:01;;;;;;;14.40;5.65;;;;;;;28.06;34.41;97141.63;10284436;28;20026;-55
2023/08/27 18:04:00;;;;;;;9.05;4.65;;;;;;;27.62;34.86;97106.09;10285124;28;20552;-56
2023/08/27 18:08:59;;;;;;;7.20;4.35;;;;;;;27.64;35.22;97148.63;10283217;28;20600;-57
2023/08/27 18:13:58;;;;;;;9.88;5.00;;;;;;;26.69;35.86;97024.59;10284193;28;20496;-56
2023/08/27 18:18:57;;;;;;;9.55;4.82;;;;;;;27.28;35.97;97151.38;10284817;28;20025;-56
2023/08/27 18:23:56;;;;;;;14.38;6.13;;;;;;;27.07;36.75;97158.38;10284032;28;20026;-56
2023/08/27 18:28:55;;;;;;;14.90;6.72;;;;;;;26.92;37.36;97155.94;10283450;28;20421;-56
2023/08/27 18:33:54;;;;;;;10.50;5.53;;;;;;;26.54;38.29;97145.53;10283520;28;20437;-54
2023/08/27 18:38:53;;;;;;;9.80;5.10;;;;;;;26.44;38.78;97166.66;10283255;28;20087;-54
2023/08/27 18:43:52;;;;;;;9.07;5.15;;;;;;;26.21;38.75;97171.03;10282458;28;20108;-55
2023/08/27 18:48:51;;;;;;;10.15;5.05;;;;;;;26.12;39.21;97174.34;10282822;28;20056;-56
2023/08/27 18:53:50;;;;;;;10.25;5.60;;;;;;;25.85;39.76;97179.84;10281910;28;20465;-56
2023/08/27 18:58:49;;;;;;;10.73;4.75;;;;;;;25.75;39.93;97179.66;10281482;28;20413;-56
2023/08/27 19:03:47;;;;;;;14.75;5.07;;;;;;;25.59;40.54;97185.22;10282454;28;20033;-54
2023/08/27 19:08:49;;;;;;;15.52;5.78;;;;;;;25.40;42.14;97188.28;10280754;28;20760;-54
2023/08/27 19:13:48;;;;;;;12.38;5.80;;;;;;;25.14;43.25;97183.97;10282207;28;20128;-56
2023/08/27 19:18:47;;;;;;;16.15;6.28;;;;;;;24.89;43.48;97170.56;10280797;28;20041;-54
2023/08/27 19:23:46;;;;;;;11.45;5.32;;;;;;;24.92;43.71;97197.84;10282329;28;20026;-54
2023/08/27 19:28:45;;;;;;;12.02;5.60;;;;;;;24.81;44.14;97193.25;10278205;28;20524;-55
2023/08/27 19:33:43;;;;;;;9.38;4.97;;;;;;;24.33;44.30;97151.31;10277694;28;20404;-55
2023/08/27 19:38:42;;;;;;;12.80;5.80;;;;;;;24.55;44.93;97198.50;10280760;28;20105;-55
2023/08/27 19:43:42;;;;;;;14.25;6.53;;;;;;;24.47;45.52;97206.97;10280492;28;20062;-56
2023/08/27 19:48:41;;;;;;;11.77;5.85;;;;;;;24.46;45.42;97205.25;10279870;28;20189;-55
2023/08/27 19:53:40;;;;;;;10.20;5.68;;;;;;;24.35;46.00;97205.09;10281653;28;20453;-55
2023/08/27 19:58:39;;;;;;;10.70;5.47;;;;;;;24.28;45.48;97203.78;10280753;28;20504;-56
2023/08/27 20:03:38;;;;;;;15.18;6.07;;;;;;;24.09;45.82;97187.38;10279025;28;20741;-56
2023/08/27 20:08:37;;;;;;;11.68;6.22;;;;;;;24.19;45.90;97209.69;10280758;28;20125;-56
2023/08/27 20:13:37;;;;;;;12.32;5.63;;;;;;;24.11;46.39;97214.63;10280757;28;20030;-56
2023/08/27 20:18:36;;;;;;;14.73;6.50;;;;;;;24.02;46.55;97210.75;10278052;28;20053;-56
2023/08/27 20:23:35;;;;;;;14.90;8.25;;;;;;;23.14;47.64;97091.78;10278744;28;20028;-56
2023/08/27 20:28:34;;;;;;;17.23;8.55;;;;;;;23.76;48.66;97220.38;10278783;28;20034;-55
2023/08/27 20:33:33;;;;;;;19.05;10.57;;;;;;;23.68;48.37;97218.22;10279290;28;20057;-55
2023/08/27 20:38:32;;;;;;;17.13;7.78;;;;;;;23.62;48.91;97224.72;10278930;28;20037;-55
2023/08/27 20:43:34;;;;;;;17.90;6.88;;;;;;;23.34;49.36;97193.78;10280038;28;20424;-55
2023/08/27 20:48:33;;;;;;;15.23;6.18;;;;;;;23.39;50.21;97219.97;10278536;28;20141;-55
2023/08/27 20:53:34;;;;;;;12.80;6.30;;;;;;;23.15;50.74;97230.25;10279184;28;20034;-55
2023/08/27 20:58:34;;;;;;;12.70;7.10;;;;;;;23.06;51.25;97242.25;10282262;28;20156;-55
2023/08/27 21:03:33;;;;;;;13.55;6.50;;;;;;;22.93;51.08;97246.56;10288077;28;20054;-55
2023/08/27 21:08:32;;;;;;;15.40;6.78;;;;;;;22.70;50.79;97222.28;10286972;28;20087;-55
2023/08/27 21:13:31;;;;;;;18.33;7.43;;;;;;;22.72;51.39;97246.84;10286162;28;20053;-55
2023/08/27 21:18:30;;;;;;;15.20;6.70;;;;;;;22.55;51.36;97245.19;10286512;28;20034;-55
2023/08/27 21:23:29;;;;;;;23.10;7.00;;;;;;;22.32;51.64;97225.34;10285500;28;20124;-55
2023/08/27 21:28:28;;;;;;;11.05;6.50;;;;;;;22.23;51.85;97222.38;10285402;28;20044;-55
2023/08/27 21:33:26;;;;;;;18.38;7.93;;;;;;;22.16;52.34;97232.44;10285923;28;20040;-55
2023/08/27 21:38:25;;;;;;;12.90;6.50;;;;;;;22.19;52.36;97250.75;10285586;28;20405;-55
2023/08/27 21:43:24;;;;;;;12.23;5.30;;;;;;;22.11;53.04;97255.63;10286051;28;20030;-55
2023/08/27 21:48:23;;;;;;;11.18;6.03;;;;;;;22.05;53.36;97262.09;10284664;28;20064;-55
2023/08/27 21:53:22;;;;;;;11.95;5.50;;;;;;;22.02;53.40;97254.34;10287119;28;20022;-55
2023/08/27 21:58:21;;;;;;;11.60;6.07;;;;;;;21.85;53.96;97228.84;10289591;28;20022;-55
2023/08/27 22:03:22;;;;;;;13.60;6.40;;;;;;;21.90;54.08;97250.56;10285016;28;20454;-55
2023/08/27 22:08:21;;;;;;;16.30;6.60;;;;;;;21.62;54.97;97218.66;10281089;28;20129;-55
2023/08/27 22:13:20;;;;;;;12.70;6.72;;;;;;;21.70;55.35;97248.13;10284215;28;20100;-55
2023/08/27 22:18:19;;;;;;;12.82;6.47;;;;;;;21.58;55.95;97239.09;10286063;28;20037;-55
2023/08/27 22:23:18;;;;;;;13.32;6.40;;;;;;;21.46;56.22;97245.88;10285202;28;20034;-55
2023/08/27 22:28:17;;;;;;;11.95;6.22;;;;;;;21.36;56.36;97239.41;10288686;28;20861;-55
2023/08/27 22:33:16;;;;;;;11.38;6.05;;;;;;;21.33;56.34;97236.91;10286893;28;20142;-55
2023/08/27 22:38:15;;;;;;;11.80;5.63;;;;;;;21.31;56.06;97236.13;10287628;28;20057;-55
2023/08/27 22:43:14;;;;;;;12.85;6.75;;;;;;;21.03;56.07;97190.06;10286420;28;20025;-55
2023/08/27 22:48:13;;;;;;;14.00;6.10;;;;;;;21.07;57.39;97239.06;10285930;28;20065;-55
2023/08/27 22:53:12;;;;;;;14.80;6.40;;;;;;;20.99;58.51;97233.34;10284920;28;20682;-55
2023/08/27 22:58:11;;;;;;;14.63;6.68;;;;;;;20.84;58.70;97228.84;10282995;28;20116;-55
2023/08/27 23:03:10;;;;;;;10.77;6.15;;;;;;;20.83;59.22;97240.34;10280101;28;20807;-55